sensor_id;sensor_type;location;lat;lon;timestamp;P1;durP1;ratioP1;P2;durP2;ratioP2
5412;SDS011;2729;50.056;8.678;2022-08-18T00:04:42;6.53;;;4.83;;
5412;SDS011;2729;50.056;8.678;2022-08-18T00:07:11;5.60;;;4.33;;
5412;SDS011;2729;50.056;8.678;2022-08-18T00:09:40;4.90;;;4.40;;
5412;SDS011;2729;50.056;8.678;2022-08-18T00:12:11;6.80;;;5.60;;
5412;SDS011;2729;50.056;8.678;2022-08-18T00:14:43;5.30;;;4.67;;
5412;SDS011;2729;50.056;8.678;2022-08-18T00:17:09;6.37;;;4.80;;
5412;SDS011;2729;50.056;8.678;2022-08-18T00:19:35;4.77;;;4.37;;
5412;SDS011;2729;50.056;8.678;2022-08-18T00:22:01;6.43;;;4.40;;
5412;SDS011;2729;50.056;8.678;2022-08-18T00:24:27;7.50;;;5.20;;
5412;SDS011;2729;50.056;8.678;2022-08-18T00:26:53;6.40;;;4.40;;
5412;SDS011;2729;50.056;8.678;2022-08-18T00:29:19;7.33;;;4.80;;
5412;SDS011;2729;50.056;8.678;2022-08-18T00:31:45;5.60;;;4.30;;
5412;SDS011;2729;50.056;8.678;2022-08-18T00:34:11;9.37;;;5.73;;
5412;SDS011;2729;50.056;8.678;2022-08-18T00:36:37;5.90;;;4.77;;
5412;SDS011;2729;50.056;8.678;2022-08-18T00:39:03;6.40;;;5.20;;
5412;SDS011;2729;50.056;8.678;2022-08-18T00:41:29;7.60;;;5.30;;
5412;SDS011;2729;50.056;8.678;2022-08-18T00:43:55;5.13;;;4.50;;
5412;SDS011;2729;50.056;8.678;2022-08-18T00:46:24;5.20;;;4.67;;
5412;SDS011;2729;50.056;8.678;2022-08-18T00:48:54;5.57;;;4.53;;
5412;SDS011;2729;50.056;8.678;2022-08-18T00:51:28;5.00;;;4.50;;
5412;SDS011;2729;50.056;8.678;2022-08-18T00:54:23;5.47;;;4.23;;
5412;SDS011;2729;50.056;8.678;2022-08-18T00:56:58;7.40;;;5.10;;
5412;SDS011;2729;50.056;8.678;2022-08-18T00:59:32;7.63;;;4.90;;
5412;SDS011;2729;50.056;8.678;2022-08-18T01:02:05;6.20;;;4.40;;
5412;SDS011;2729;50.056;8.678;2022-08-18T01:04:38;5.90;;;5.30;;
5412;SDS011;2729;50.056;8.678;2022-08-18T01:07:18;7.50;;;4.90;;
5412;SDS011;2729;50.056;8.678;2022-08-18T01:09:47;5.80;;;4.47;;
5412;SDS011;2729;50.056;8.678;2022-08-18T01:12:16;5.70;;;4.50;;
5412;SDS011;2729;50.056;8.678;2022-08-18T01:14:43;5.70;;;4.53;;
5412;SDS011;2729;50.056;8.678;2022-08-18T01:17:11;13.10;;;4.73;;
5412;SDS011;2729;50.056;8.678;2022-08-18T01:19:57;5.13;;;4.40;;
5412;SDS011;2729;50.056;8.678;2022-08-18T01:25:14;6.03;;;4.53;;
5412;SDS011;2729;50.056;8.678;2022-08-18T01:28:03;4.53;;;4.13;;
5412;SDS011;2729;50.056;8.678;2022-08-18T01:30:31;5.97;;;4.67;;
5412;SDS011;2729;50.056;8.678;2022-08-18T01:33:08;5.90;;;4.80;;
5412;SDS011;2729;50.056;8.678;2022-08-18T01:35:36;6.37;;;5.33;;
5412;SDS011;2729;50.056;8.678;2022-08-18T01:38:05;7.07;;;4.63;;
5412;SDS011;2729;50.056;8.678;2022-08-18T01:40:31;6.20;;;4.50;;
5412;SDS011;2729;50.056;8.678;2022-08-18T01:42:57;5.30;;;4.60;;
5412;SDS011;2729;50.056;8.678;2022-08-18T01:45:28;6.20;;;5.57;;
5412;SDS011;2729;50.056;8.678;2022-08-18T01:47:58;5.23;;;4.47;;
5412;SDS011;2729;50.056;8.678;2022-08-18T01:50:24;6.73;;;5.30;;
5412;SDS011;2729;50.056;8.678;2022-08-18T01:52:50;6.53;;;4.63;;
5412;SDS011;2729;50.056;8.678;2022-08-18T01:55:18;12.67;;;5.13;;
5412;SDS011;2729;50.056;8.678;2022-08-18T01:57:45;4.60;;;4.20;;
5412;SDS011;2729;50.056;8.678;2022-08-18T02:00:11;6.57;;;4.77;;
5412;SDS011;2729;50.056;8.678;2022-08-18T02:02:39;5.07;;;4.47;;
5412;SDS011;2729;50.056;8.678;2022-08-18T02:05:11;8.40;;;5.17;;
5412;SDS011;2729;50.056;8.678;2022-08-18T02:07:41;5.30;;;4.80;;
5412;SDS011;2729;50.056;8.678;2022-08-18T02:10:07;5.80;;;4.80;;
5412;SDS011;2729;50.056;8.678;2022-08-18T02:12:36;7.13;;;5.00;;
5412;SDS011;2729;50.056;8.678;2022-08-18T02:15:03;8.30;;;5.07;;
5412;SDS011;2729;50.056;8.678;2022-08-18T02:17:35;8.10;;;5.17;;
5412;SDS011;2729;50.056;8.678;2022-08-18T02:20:05;5.40;;;4.53;;
5412;SDS011;2729;50.056;8.678;2022-08-18T02:22:33;6.13;;;5.27;;
5412;SDS011;2729;50.056;8.678;2022-08-18T02:24:59;5.57;;;4.60;;
5412;SDS011;2729;50.056;8.678;2022-08-18T02:27:26;5.93;;;4.63;;
5412;SDS011;2729;50.056;8.678;2022-08-18T02:29:52;8.00;;;5.07;;
5412;SDS011;2729;50.056;8.678;2022-08-18T02:32:18;6.33;;;4.90;;
5412;SDS011;2729;50.056;8.678;2022-08-18T02:34:44;8.07;;;5.40;;
5412;SDS011;2729;50.056;8.678;2022-08-18T02:37:10;6.47;;;5.03;;
5412;SDS011;2729;50.056;8.678;2022-08-18T02:39:36;8.17;;;5.00;;
5412;SDS011;2729;50.056;8.678;2022-08-18T02:42:05;6.17;;;5.37;;
5412;SDS011;2729;50.056;8.678;2022-08-18T02:44:32;6.60;;;5.23;;
5412;SDS011;2729;50.056;8.678;2022-08-18T02:46:58;5.10;;;4.57;;
5412;SDS011;2729;50.056;8.678;2022-08-18T02:49:24;4.80;;;4.40;;
5412;SDS011;2729;50.056;8.678;2022-08-18T02:51:51;7.73;;;5.13;;
5412;SDS011;2729;50.056;8.678;2022-08-18T02:54:18;6.07;;;5.03;;
5412;SDS011;2729;50.056;8.678;2022-08-18T02:56:47;5.47;;;4.97;;
5412;SDS011;2729;50.056;8.678;2022-08-18T02:59:21;7.73;;;5.57;;
5412;SDS011;2729;50.056;8.678;2022-08-18T03:01:50;8.43;;;5.23;;
5412;SDS011;2729;50.056;8.678;2022-08-18T03:04:23;6.40;;;5.63;;
5412;SDS011;2729;50.056;8.678;2022-08-18T03:06:52;6.73;;;5.03;;
5412;SDS011;2729;50.056;8.678;2022-08-18T03:09:19;6.03;;;5.40;;
5412;SDS011;2729;50.056;8.678;2022-08-18T03:11:46;7.60;;;5.50;;
5412;SDS011;2729;50.056;8.678;2022-08-18T03:14:12;5.00;;;4.47;;
5412;SDS011;2729;50.056;8.678;2022-08-18T03:16:40;9.70;;;5.70;;
5412;SDS011;2729;50.056;8.678;2022-08-18T03:19:08;9.93;;;5.37;;
5412;SDS011;2729;50.056;8.678;2022-08-18T03:21:34;7.03;;;5.57;;
5412;SDS011;2729;50.056;8.678;2022-08-18T03:24:03;6.40;;;5.40;;
5412;SDS011;2729;50.056;8.678;2022-08-18T03:26:30;5.67;;;5.00;;
5412;SDS011;2729;50.056;8.678;2022-08-18T03:28:57;9.17;;;4.70;;
5412;SDS011;2729;50.056;8.678;2022-08-18T03:31:25;5.53;;;4.70;;
5412;SDS011;2729;50.056;8.678;2022-08-18T03:33:53;6.40;;;5.10;;
5412;SDS011;2729;50.056;8.678;2022-08-18T03:36:20;6.53;;;5.20;;
5412;SDS011;2729;50.056;8.678;2022-08-18T03:38:49;4.90;;;4.30;;
5412;SDS011;2729;50.056;8.678;2022-08-18T03:41:18;6.60;;;5.10;;
5412;SDS011;2729;50.056;8.678;2022-08-18T03:43:47;6.73;;;5.13;;
5412;SDS011;2729;50.056;8.678;2022-08-18T03:46:14;8.20;;;5.20;;
5412;SDS011;2729;50.056;8.678;2022-08-18T03:48:41;6.90;;;5.33;;
5412;SDS011;2729;50.056;8.678;2022-08-18T03:51:12;7.47;;;4.93;;
5412;SDS011;2729;50.056;8.678;2022-08-18T03:53:40;7.60;;;5.27;;
5412;SDS011;2729;50.056;8.678;2022-08-18T03:56:07;4.80;;;4.27;;
5412;SDS011;2729;50.056;8.678;2022-08-18T03:58:41;6.77;;;5.33;;
5412;SDS011;2729;50.056;8.678;2022-08-18T04:01:15;8.33;;;4.43;;
5412;SDS011;2729;50.056;8.678;2022-08-18T04:03:43;6.60;;;5.10;;
5412;SDS011;2729;50.056;8.678;2022-08-18T04:06:18;5.40;;;4.50;;
5412;SDS011;2729;50.056;8.678;2022-08-18T04:08:49;6.77;;;4.60;;
5412;SDS011;2729;50.056;8.678;2022-08-18T04:11:16;8.67;;;5.43;;
5412;SDS011;2729;50.056;8.678;2022-08-18T04:13:42;7.20;;;5.10;;
5412;SDS011;2729;50.056;8.678;2022-08-18T04:16:08;5.87;;;4.60;;
5412;SDS011;2729;50.056;8.678;2022-08-18T04:18:34;5.33;;;4.83;;
5412;SDS011;2729;50.056;8.678;2022-08-18T04:21:01;8.73;;;5.10;;
5412;SDS011;2729;50.056;8.678;2022-08-18T04:23:28;5.93;;;4.63;;
5412;SDS011;2729;50.056;8.678;2022-08-18T04:25:56;7.73;;;5.03;;
5412;SDS011;2729;50.056;8.678;2022-08-18T04:28:22;7.70;;;4.70;;
5412;SDS011;2729;50.056;8.678;2022-08-18T04:30:48;4.70;;;4.30;;
5412;SDS011;2729;50.056;8.678;2022-08-18T04:33:14;7.60;;;5.90;;
5412;SDS011;2729;50.056;8.678;2022-08-18T04:35:40;5.50;;;4.03;;
5412;SDS011;2729;50.056;8.678;2022-08-18T04:38:06;7.60;;;4.40;;
5412;SDS011;2729;50.056;8.678;2022-08-18T04:40:32;5.33;;;4.50;;
5412;SDS011;2729;50.056;8.678;2022-08-18T04:42:59;5.77;;;5.27;;
5412;SDS011;2729;50.056;8.678;2022-08-18T04:45:26;4.80;;;3.73;;
5412;SDS011;2729;50.056;8.678;2022-08-18T04:47:53;5.17;;;4.40;;
5412;SDS011;2729;50.056;8.678;2022-08-18T04:50:20;5.47;;;4.57;;
5412;SDS011;2729;50.056;8.678;2022-08-18T04:52:49;9.63;;;4.50;;
5412;SDS011;2729;50.056;8.678;2022-08-18T04:55:49;11.93;;;4.13;;
5412;SDS011;2729;50.056;8.678;2022-08-18T04:58:20;4.97;;;4.37;;
5412;SDS011;2729;50.056;8.678;2022-08-18T05:00:55;4.87;;;4.20;;
5412;SDS011;2729;50.056;8.678;2022-08-18T05:03:23;6.07;;;4.40;;
5412;SDS011;2729;50.056;8.678;2022-08-18T05:05:54;5.00;;;4.50;;
5412;SDS011;2729;50.056;8.678;2022-08-18T05:08:23;8.23;;;4.20;;
5412;SDS011;2729;50.056;8.678;2022-08-18T05:10:53;5.60;;;4.90;;
5412;SDS011;2729;50.056;8.678;2022-08-18T05:13:20;8.30;;;4.40;;
5412;SDS011;2729;50.056;8.678;2022-08-18T05:15:51;6.03;;;4.17;;
5412;SDS011;2729;50.056;8.678;2022-08-18T05:18:18;6.20;;;4.70;;
5412;SDS011;2729;50.056;8.678;2022-08-18T05:20:47;5.03;;;4.27;;
5412;SDS011;2729;50.056;8.678;2022-08-18T05:23:14;6.10;;;4.37;;
5412;SDS011;2729;50.056;8.678;2022-08-18T05:25:41;7.60;;;4.80;;
5412;SDS011;2729;50.056;8.678;2022-08-18T05:28:07;5.40;;;4.87;;
5412;SDS011;2729;50.056;8.678;2022-08-18T05:30:34;8.70;;;4.40;;
5412;SDS011;2729;50.056;8.678;2022-08-18T05:33:01;7.90;;;4.30;;
5412;SDS011;2729;50.056;8.678;2022-08-18T05:35:42;5.23;;;4.73;;
5412;SDS011;2729;50.056;8.678;2022-08-18T05:41:04;4.97;;;4.37;;
5412;SDS011;2729;50.056;8.678;2022-08-18T05:43:34;6.17;;;4.50;;
5412;SDS011;2729;50.056;8.678;2022-08-18T05:46:02;8.80;;;4.00;;
5412;SDS011;2729;50.056;8.678;2022-08-18T05:48:31;9.50;;;4.90;;
5412;SDS011;2729;50.056;8.678;2022-08-18T05:50:58;4.70;;;3.90;;
5412;SDS011;2729;50.056;8.678;2022-08-18T05:53:35;4.63;;;4.23;;
5412;SDS011;2729;50.056;8.678;2022-08-18T05:56:23;8.20;;;4.87;;
5412;SDS011;2729;50.056;8.678;2022-08-18T05:59:11;4.37;;;3.77;;
5412;SDS011;2729;50.056;8.678;2022-08-18T06:01:42;4.63;;;4.10;;
5412;SDS011;2729;50.056;8.678;2022-08-18T06:04:21;4.63;;;4.10;;
5412;SDS011;2729;50.056;8.678;2022-08-18T06:06:54;5.97;;;4.53;;
5412;SDS011;2729;50.056;8.678;2022-08-18T06:09:27;6.07;;;4.47;;
5412;SDS011;2729;50.056;8.678;2022-08-18T06:12:13;4.83;;;4.17;;
5412;SDS011;2729;50.056;8.678;2022-08-18T06:14:45;5.60;;;4.67;;
5412;SDS011;2729;50.056;8.678;2022-08-18T06:17:16;7.40;;;3.90;;
5412;SDS011;2729;50.056;8.678;2022-08-18T06:19:51;6.30;;;4.50;;
5412;SDS011;2729;50.056;8.678;2022-08-18T06:22:38;5.50;;;4.00;;
5412;SDS011;2729;50.056;8.678;2022-08-18T06:28:10;3.80;;;3.47;;
5412;SDS011;2729;50.056;8.678;2022-08-18T06:36:08;9.30;;;3.80;;
5412;SDS011;2729;50.056;8.678;2022-08-18T06:41:45;5.87;;;3.63;;
5412;SDS011;2729;50.056;8.678;2022-08-18T06:46:49;4.60;;;4.10;;
5412;SDS011;2729;50.056;8.678;2022-08-18T06:49:23;5.23;;;4.20;;
5412;SDS011;2729;50.056;8.678;2022-08-18T06:54:47;4.77;;;4.37;;
5412;SDS011;2729;50.056;8.678;2022-08-18T06:57:27;5.70;;;4.10;;
5412;SDS011;2729;50.056;8.678;2022-08-18T07:00:00;5.40;;;4.20;;
5412;SDS011;2729;50.056;8.678;2022-08-18T07:02:37;4.13;;;3.73;;
5412;SDS011;2729;50.056;8.678;2022-08-18T07:05:18;5.50;;;4.13;;
5412;SDS011;2729;50.056;8.678;2022-08-18T07:08:02;5.33;;;3.80;;
5412;SDS011;2729;50.056;8.678;2022-08-18T07:10:36;4.20;;;3.80;;
5412;SDS011;2729;50.056;8.678;2022-08-18T07:13:05;4.23;;;3.83;;
5412;SDS011;2729;50.056;8.678;2022-08-18T07:15:37;6.50;;;4.53;;
5412;SDS011;2729;50.056;8.678;2022-08-18T07:18:05;3.67;;;3.37;;
5412;SDS011;2729;50.056;8.678;2022-08-18T07:20:45;4.83;;;4.43;;
5412;SDS011;2729;50.056;8.678;2022-08-18T07:23:19;4.90;;;4.10;;
5412;SDS011;2729;50.056;8.678;2022-08-18T07:25:51;5.40;;;4.23;;
5412;SDS011;2729;50.056;8.678;2022-08-18T07:28:28;6.67;;;4.00;;
5412;SDS011;2729;50.056;8.678;2022-08-18T07:31:33;4.73;;;3.70;;
5412;SDS011;2729;50.056;8.678;2022-08-18T07:34:08;5.63;;;3.80;;
5412;SDS011;2729;50.056;8.678;2022-08-18T07:36:39;4.53;;;4.00;;
5412;SDS011;2729;50.056;8.678;2022-08-18T07:39:22;4.40;;;3.80;;
5412;SDS011;2729;50.056;8.678;2022-08-18T07:42:07;4.53;;;3.70;;
5412;SDS011;2729;50.056;8.678;2022-08-18T07:44:54;5.17;;;3.50;;
5412;SDS011;2729;50.056;8.678;2022-08-18T07:47:33;7.37;;;3.80;;
5412;SDS011;2729;50.056;8.678;2022-08-18T07:50:06;5.33;;;4.37;;
5412;SDS011;2729;50.056;8.678;2022-08-18T07:55:29;4.43;;;4.03;;
5412;SDS011;2729;50.056;8.678;2022-08-18T08:01:11;4.27;;;3.83;;
5412;SDS011;2729;50.056;8.678;2022-08-18T08:03:53;6.00;;;4.00;;
5412;SDS011;2729;50.056;8.678;2022-08-18T08:06:32;6.13;;;3.90;;
5412;SDS011;2729;50.056;8.678;2022-08-18T08:09:20;4.10;;;3.60;;
5412;SDS011;2729;50.056;8.678;2022-08-18T08:14:41;9.80;;;4.37;;
5412;SDS011;2729;50.056;8.678;2022-08-18T08:17:30;7.27;;;4.00;;
5412;SDS011;2729;50.056;8.678;2022-08-18T08:22:56;9.60;;;3.90;;
5412;SDS011;2729;50.056;8.678;2022-08-18T08:25:38;6.13;;;3.90;;
5412;SDS011;2729;50.056;8.678;2022-08-18T08:28:28;13.93;;;3.80;;
5412;SDS011;2729;50.056;8.678;2022-08-18T08:31:11;6.80;;;4.50;;
5412;SDS011;2729;50.056;8.678;2022-08-18T08:33:47;4.63;;;4.23;;
5412;SDS011;2729;50.056;8.678;2022-08-18T08:36:30;4.30;;;3.90;;
5412;SDS011;2729;50.056;8.678;2022-08-18T08:39:03;5.20;;;3.90;;
5412;SDS011;2729;50.056;8.678;2022-08-18T08:44:59;11.47;;;4.07;;
5412;SDS011;2729;50.056;8.678;2022-08-18T08:47:09;6.10;;;3.53;;
5412;SDS011;2729;50.056;8.678;2022-08-18T08:57:44;5.27;;;4.70;;
5412;SDS011;2729;50.056;8.678;2022-08-18T09:00:16;7.00;;;4.13;;
5412;SDS011;2729;50.056;8.678;2022-08-18T09:02:56;5.60;;;4.97;;
5412;SDS011;2729;50.056;8.678;2022-08-18T09:05:42;5.47;;;4.13;;
5412;SDS011;2729;50.056;8.678;2022-08-18T09:20:23;8.00;;;4.47;;
5412;SDS011;2729;50.056;8.678;2022-08-18T09:23:02;6.97;;;4.57;;
5412;SDS011;2729;50.056;8.678;2022-08-18T09:36:14;5.70;;;4.60;;
5412;SDS011;2729;50.056;8.678;2022-08-18T09:39:28;5.90;;;4.30;;
5412;SDS011;2729;50.056;8.678;2022-08-18T09:41:59;8.47;;;4.90;;
5412;SDS011;2729;50.056;8.678;2022-08-18T09:47:06;8.30;;;4.70;;
5412;SDS011;2729;50.056;8.678;2022-08-18T09:49:43;5.27;;;4.70;;
5412;SDS011;2729;50.056;8.678;2022-08-18T09:54:53;8.00;;;5.30;;
5412;SDS011;2729;50.056;8.678;2022-08-18T09:57:26;8.53;;;5.00;;
5412;SDS011;2729;50.056;8.678;2022-08-18T10:05:21;4.90;;;4.50;;
5412;SDS011;2729;50.056;8.678;2022-08-18T10:07:53;6.23;;;5.17;;
5412;SDS011;2729;50.056;8.678;2022-08-18T10:13:32;6.23;;;4.37;;
5412;SDS011;2729;50.056;8.678;2022-08-18T10:16:18;5.13;;;4.63;;
5412;SDS011;2729;50.056;8.678;2022-08-18T10:24:21;7.10;;;5.47;;
5412;SDS011;2729;50.056;8.678;2022-08-18T10:42:37;10.40;;;6.10;;
5412;SDS011;2729;50.056;8.678;2022-08-18T10:45:24;7.27;;;5.60;;
5412;SDS011;2729;50.056;8.678;2022-08-18T10:48:06;9.03;;;6.20;;
5412;SDS011;2729;50.056;8.678;2022-08-18T10:50:43;8.70;;;6.17;;
5412;SDS011;2729;50.056;8.678;2022-08-18T10:53:54;8.70;;;6.30;;
5412;SDS011;2729;50.056;8.678;2022-08-18T11:04:27;11.33;;;7.87;;
5412;SDS011;2729;50.056;8.678;2022-08-18T11:07:02;10.90;;;7.87;;
5412;SDS011;2729;50.056;8.678;2022-08-18T11:09:31;10.97;;;8.80;;
5412;SDS011;2729;50.056;8.678;2022-08-18T11:11:59;9.10;;;7.30;;
5412;SDS011;2729;50.056;8.678;2022-08-18T11:15:09;17.47;;;9.10;;
5412;SDS011;2729;50.056;8.678;2022-08-18T11:20:44;17.00;;;10.17;;
5412;SDS011;2729;50.056;8.678;2022-08-18T11:23:11;20.20;;;9.50;;
5412;SDS011;2729;50.056;8.678;2022-08-18T11:25:40;13.47;;;9.20;;
5412;SDS011;2729;50.056;8.678;2022-08-18T11:28:16;10.20;;;7.80;;
5412;SDS011;2729;50.056;8.678;2022-08-18T11:30:47;11.77;;;8.97;;
5412;SDS011;2729;50.056;8.678;2022-08-18T11:33:17;15.43;;;9.07;;
5412;SDS011;2729;50.056;8.678;2022-08-18T11:35:47;13.20;;;8.63;;
5412;SDS011;2729;50.056;8.678;2022-08-18T11:38:15;13.50;;;9.67;;
5412;SDS011;2729;50.056;8.678;2022-08-18T11:40:44;13.27;;;9.30;;
5412;SDS011;2729;50.056;8.678;2022-08-18T11:43:19;11.60;;;8.40;;
5412;SDS011;2729;50.056;8.678;2022-08-18T11:45:52;14.83;;;10.20;;
5412;SDS011;2729;50.056;8.678;2022-08-18T11:53:22;13.90;;;9.10;;
5412;SDS011;2729;50.056;8.678;2022-08-18T12:04:15;13.60;;;9.00;;
5412;SDS011;2729;50.056;8.678;2022-08-18T12:09:15;14.30;;;8.10;;
5412;SDS011;2729;50.056;8.678;2022-08-18T12:11:54;13.90;;;7.83;;
5412;SDS011;2729;50.056;8.678;2022-08-18T12:14:24;12.40;;;8.80;;
5412;SDS011;2729;50.056;8.678;2022-08-18T12:16:53;9.80;;;7.43;;
5412;SDS011;2729;50.056;8.678;2022-08-18T12:19:19;10.70;;;7.70;;
5412;SDS011;2729;50.056;8.678;2022-08-18T12:21:56;12.30;;;8.60;;
5412;SDS011;2729;50.056;8.678;2022-08-18T12:24:25;10.50;;;7.80;;
5412;SDS011;2729;50.056;8.678;2022-08-18T12:26:56;10.60;;;7.87;;
5412;SDS011;2729;50.056;8.678;2022-08-18T12:29:23;14.30;;;8.77;;
5412;SDS011;2729;50.056;8.678;2022-08-18T12:31:51;10.40;;;7.60;;
5412;SDS011;2729;50.056;8.678;2022-08-18T12:34:20;13.27;;;8.47;;
5412;SDS011;2729;50.056;8.678;2022-08-18T12:36:52;9.57;;;7.60;;
5412;SDS011;2729;50.056;8.678;2022-08-18T12:39:19;8.73;;;7.40;;
5412;SDS011;2729;50.056;8.678;2022-08-18T12:41:45;11.77;;;8.67;;
5412;SDS011;2729;50.056;8.678;2022-08-18T12:44:11;10.47;;;7.90;;
5412;SDS011;2729;50.056;8.678;2022-08-18T12:46:38;7.43;;;5.70;;
5412;SDS011;2729;50.056;8.678;2022-08-18T12:52:53;12.87;;;7.77;;
5412;SDS011;2729;50.056;8.678;2022-08-18T12:55:19;8.30;;;6.07;;
5412;SDS011;2729;50.056;8.678;2022-08-18T12:57:45;10.43;;;6.50;;
5412;SDS011;2729;50.056;8.678;2022-08-18T13:00:11;6.47;;;5.63;;
5412;SDS011;2729;50.056;8.678;2022-08-18T13:02:38;10.50;;;7.47;;
5412;SDS011;2729;50.056;8.678;2022-08-18T13:05:04;8.90;;;6.70;;
5412;SDS011;2729;50.056;8.678;2022-08-18T13:07:30;8.73;;;7.03;;
5412;SDS011;2729;50.056;8.678;2022-08-18T13:09:57;8.50;;;6.93;;
5412;SDS011;2729;50.056;8.678;2022-08-18T13:12:26;9.63;;;6.50;;
5412;SDS011;2729;50.056;8.678;2022-08-18T13:14:52;8.07;;;6.60;;
5412;SDS011;2729;50.056;8.678;2022-08-18T13:17:19;7.83;;;5.70;;
5412;SDS011;2729;50.056;8.678;2022-08-18T13:19:45;8.20;;;6.80;;
5412;SDS011;2729;50.056;8.678;2022-08-18T13:22:12;9.73;;;5.93;;
5412;SDS011;2729;50.056;8.678;2022-08-18T13:24:38;8.60;;;6.50;;
5412;SDS011;2729;50.056;8.678;2022-08-18T13:27:04;7.83;;;6.20;;
5412;SDS011;2729;50.056;8.678;2022-08-18T13:29:30;7.90;;;6.60;;
5412;SDS011;2729;50.056;8.678;2022-08-18T13:31:56;10.33;;;6.33;;
5412;SDS011;2729;50.056;8.678;2022-08-18T13:34:24;7.57;;;6.40;;
5412;SDS011;2729;50.056;8.678;2022-08-18T13:36:52;7.47;;;6.00;;
5412;SDS011;2729;50.056;8.678;2022-08-18T13:39:20;8.10;;;6.20;;
5412;SDS011;2729;50.056;8.678;2022-08-18T13:41:49;7.33;;;6.10;;
5412;SDS011;2729;50.056;8.678;2022-08-18T13:44:17;7.23;;;5.93;;
5412;SDS011;2729;50.056;8.678;2022-08-18T13:46:44;8.60;;;6.10;;
5412;SDS011;2729;50.056;8.678;2022-08-18T13:49:12;7.13;;;5.80;;
5412;SDS011;2729;50.056;8.678;2022-08-18T13:51:40;6.97;;;6.20;;
5412;SDS011;2729;50.056;8.678;2022-08-18T13:54:13;5.67;;;5.03;;
5412;SDS011;2729;50.056;8.678;2022-08-18T13:56:44;7.33;;;5.30;;
5412;SDS011;2729;50.056;8.678;2022-08-18T13:59:10;6.10;;;5.50;;
5412;SDS011;2729;50.056;8.678;2022-08-18T14:01:37;7.13;;;6.07;;
5412;SDS011;2729;50.056;8.678;2022-08-18T14:04:04;7.90;;;6.13;;
5412;SDS011;2729;50.056;8.678;2022-08-18T14:06:30;6.80;;;5.83;;
5412;SDS011;2729;50.056;8.678;2022-08-18T14:08:56;7.13;;;6.07;;
5412;SDS011;2729;50.056;8.678;2022-08-18T14:11:24;5.27;;;4.77;;
5412;SDS011;2729;50.056;8.678;2022-08-18T14:13:53;7.07;;;6.00;;
5412;SDS011;2729;50.056;8.678;2022-08-18T14:16:21;7.87;;;6.50;;
5412;SDS011;2729;50.056;8.678;2022-08-18T14:18:48;9.47;;;6.30;;
5412;SDS011;2729;50.056;8.678;2022-08-18T14:21:34;9.40;;;7.00;;
5412;SDS011;2729;50.056;8.678;2022-08-18T14:24:23;6.90;;;5.67;;
5412;SDS011;2729;50.056;8.678;2022-08-18T14:27:07;7.73;;;6.47;;
5412;SDS011;2729;50.056;8.678;2022-08-18T14:29:33;7.17;;;5.90;;
5412;SDS011;2729;50.056;8.678;2022-08-18T14:31:59;6.33;;;5.70;;
5412;SDS011;2729;50.056;8.678;2022-08-18T14:34:24;9.63;;;6.30;;
5412;SDS011;2729;50.056;8.678;2022-08-18T14:36:50;7.73;;;5.83;;
5412;SDS011;2729;50.056;8.678;2022-08-18T14:39:16;5.10;;;4.60;;
5412;SDS011;2729;50.056;8.678;2022-08-18T14:41:42;6.20;;;4.90;;
5412;SDS011;2729;50.056;8.678;2022-08-18T14:44:08;8.13;;;5.20;;
5412;SDS011;2729;50.056;8.678;2022-08-18T14:46:38;5.50;;;5.00;;
5412;SDS011;2729;50.056;8.678;2022-08-18T14:49:04;7.90;;;5.70;;
5412;SDS011;2729;50.056;8.678;2022-08-18T14:51:30;6.93;;;5.60;;
5412;SDS011;2729;50.056;8.678;2022-08-18T14:53:57;7.80;;;6.00;;
5412;SDS011;2729;50.056;8.678;2022-08-18T14:56:23;7.00;;;5.60;;
5412;SDS011;2729;50.056;8.678;2022-08-18T14:58:50;11.40;;;5.70;;
5412;SDS011;2729;50.056;8.678;2022-08-18T15:01:16;6.30;;;5.27;;
5412;SDS011;2729;50.056;8.678;2022-08-18T15:03:42;6.90;;;5.10;;
5412;SDS011;2729;50.056;8.678;2022-08-18T15:06:08;6.80;;;5.40;;
5412;SDS011;2729;50.056;8.678;2022-08-18T15:08:35;5.67;;;4.73;;
5412;SDS011;2729;50.056;8.678;2022-08-18T15:11:03;6.40;;;5.50;;
5412;SDS011;2729;50.056;8.678;2022-08-18T15:13:30;5.70;;;5.20;;
5412;SDS011;2729;50.056;8.678;2022-08-18T15:15:57;5.90;;;5.20;;
5412;SDS011;2729;50.056;8.678;2022-08-18T15:18:22;7.10;;;5.57;;
5412;SDS011;2729;50.056;8.678;2022-08-18T15:20:49;5.90;;;5.30;;
5412;SDS011;2729;50.056;8.678;2022-08-18T15:23:34;5.93;;;5.17;;
5412;SDS011;2729;50.056;8.678;2022-08-18T15:26:23;6.43;;;5.83;;
5412;SDS011;2729;50.056;8.678;2022-08-18T15:28:50;9.27;;;5.87;;
5412;SDS011;2729;50.056;8.678;2022-08-18T15:31:17;9.23;;;5.83;;
5412;SDS011;2729;50.056;8.678;2022-08-18T15:33:43;5.90;;;5.00;;
5412;SDS011;2729;50.056;8.678;2022-08-18T15:36:09;6.53;;;5.77;;
5412;SDS011;2729;50.056;8.678;2022-08-18T15:38:35;6.40;;;5.77;;
5412;SDS011;2729;50.056;8.678;2022-08-18T15:41:01;6.20;;;5.37;;
5412;SDS011;2729;50.056;8.678;2022-08-18T15:43:29;7.30;;;5.87;;
5412;SDS011;2729;50.056;8.678;2022-08-18T15:45:57;6.73;;;5.63;;
5412;SDS011;2729;50.056;8.678;2022-08-18T15:48:25;12.57;;;5.90;;
5412;SDS011;2729;50.056;8.678;2022-08-18T15:50:53;7.97;;;6.33;;
5412;SDS011;2729;50.056;8.678;2022-08-18T15:53:20;6.23;;;5.63;;
5412;SDS011;2729;50.056;8.678;2022-08-18T15:55:48;6.33;;;5.37;;
5412;SDS011;2729;50.056;8.678;2022-08-18T15:58:14;6.63;;;5.63;;
5412;SDS011;2729;50.056;8.678;2022-08-18T16:00:42;5.50;;;5.00;;
5412;SDS011;2729;50.056;8.678;2022-08-18T16:03:10;6.77;;;5.90;;
5412;SDS011;2729;50.056;8.678;2022-08-18T16:05:40;9.07;;;5.90;;
5412;SDS011;2729;50.056;8.678;2022-08-18T16:08:12;8.20;;;6.27;;
5412;SDS011;2729;50.056;8.678;2022-08-18T16:10:38;6.87;;;6.17;;
5412;SDS011;2729;50.056;8.678;2022-08-18T16:13:05;6.93;;;6.00;;
5412;SDS011;2729;50.056;8.678;2022-08-18T16:15:33;5.50;;;5.00;;
5412;SDS011;2729;50.056;8.678;2022-08-18T16:18:03;7.23;;;6.30;;
5412;SDS011;2729;50.056;8.678;2022-08-18T16:20:30;7.80;;;6.10;;
5412;SDS011;2729;50.056;8.678;2022-08-18T16:22:56;8.97;;;6.17;;
5412;SDS011;2729;50.056;8.678;2022-08-18T16:25:22;6.80;;;5.57;;
5412;SDS011;2729;50.056;8.678;2022-08-18T16:27:49;9.33;;;5.80;;
5412;SDS011;2729;50.056;8.678;2022-08-18T16:30:16;7.40;;;6.10;;
5412;SDS011;2729;50.056;8.678;2022-08-18T16:32:45;6.83;;;6.07;;
5412;SDS011;2729;50.056;8.678;2022-08-18T16:35:11;8.90;;;6.27;;
5412;SDS011;2729;50.056;8.678;2022-08-18T16:37:38;8.10;;;6.23;;
5412;SDS011;2729;50.056;8.678;2022-08-18T16:40:05;10.13;;;6.50;;
5412;SDS011;2729;50.056;8.678;2022-08-18T16:42:33;6.40;;;5.40;;
5412;SDS011;2729;50.056;8.678;2022-08-18T16:44:59;6.60;;;5.70;;
5412;SDS011;2729;50.056;8.678;2022-08-18T16:47:26;8.20;;;6.33;;
5412;SDS011;2729;50.056;8.678;2022-08-18T16:49:52;8.30;;;5.80;;
5412;SDS011;2729;50.056;8.678;2022-08-18T16:52:19;6.70;;;5.73;;
5412;SDS011;2729;50.056;8.678;2022-08-18T16:54:45;6.23;;;5.43;;
5412;SDS011;2729;50.056;8.678;2022-08-18T16:57:12;8.33;;;5.33;;
5412;SDS011;2729;50.056;8.678;2022-08-18T16:59:38;6.10;;;5.50;;
5412;SDS011;2729;50.056;8.678;2022-08-18T17:02:23;5.17;;;4.67;;
5412;SDS011;2729;50.056;8.678;2022-08-18T17:05:08;6.37;;;5.33;;
5412;SDS011;2729;50.056;8.678;2022-08-18T17:07:35;12.20;;;5.37;;
5412;SDS011;2729;50.056;8.678;2022-08-18T17:10:01;5.90;;;5.30;;
5412;SDS011;2729;50.056;8.678;2022-08-18T17:12:29;6.20;;;5.33;;
5412;SDS011;2729;50.056;8.678;2022-08-18T17:14:55;5.57;;;5.07;;
5412;SDS011;2729;50.056;8.678;2022-08-18T17:17:21;5.87;;;4.90;;
5412;SDS011;2729;50.056;8.678;2022-08-18T17:19:48;4.87;;;4.43;;
5412;SDS011;2729;50.056;8.678;2022-08-18T17:22:16;4.87;;;4.37;;
5412;SDS011;2729;50.056;8.678;2022-08-18T17:24:43;8.80;;;5.00;;
5412;SDS011;2729;50.056;8.678;2022-08-18T17:27:14;7.37;;;5.73;;
5412;SDS011;2729;50.056;8.678;2022-08-18T17:29:49;6.60;;;5.30;;
5412;SDS011;2729;50.056;8.678;2022-08-18T17:35:24;5.77;;;4.80;;
5412;SDS011;2729;50.056;8.678;2022-08-18T17:38:18;10.07;;;6.73;;
5412;SDS011;2729;50.056;8.678;2022-08-18T17:40:52;7.23;;;6.03;;
5412;SDS011;2729;50.056;8.678;2022-08-18T17:43:21;7.80;;;5.63;;
5412;SDS011;2729;50.056;8.678;2022-08-18T17:45:57;7.33;;;5.73;;
5412;SDS011;2729;50.056;8.678;2022-08-18T17:48:27;7.20;;;5.90;;
5412;SDS011;2729;50.056;8.678;2022-08-18T17:51:06;7.90;;;6.30;;
5412;SDS011;2729;50.056;8.678;2022-08-18T17:53:55;6.33;;;5.73;;
5412;SDS011;2729;50.056;8.678;2022-08-18T17:56:28;7.30;;;5.80;;